KCDC/CDC METAR and TAF weather

Enter ICAO airport designator
Station Type Date Time Source
KCDC METAR 2019/10/15 07:53 UTC NOAA

KCDC 150753Z AUTO 25005KT 10SM CLR 01/M09 A3017 RMK AO2 SLP181 T00111094


Station Type Date Time Source
KCDC Decoded METAR 2019/10/15 07:53 UTC NOAA

CEDAR CITY MUN AIRPORT, UT, United States (KCDC) 37-42N 113-06W 1714M
Oct 15, 2019 - 03:53 AM EDT / 2019.10.15 0753 UTC
Wind: from the WSW (250 degrees) at 6 MPH (5 KT):0
Visibility: 10 mile(s):0
Sky conditions: clear
Temperature: 34.0 F (1.1 C)
Windchill: 28 F (-2 C):1
Dew Point: 15.1 F (-9.4 C)
Relative Humidity: 45%
Pressure (altimeter): 30.17 in. Hg (1021 hPa)
ob: KCDC 150753Z AUTO 25005KT 10SM CLR 01/M09 A3017 RMK AO2 SLP181 T00111094
cycle: 8

Station Type Date Time Source
KCDC TAF 2019/10/15 06:21 UTC NOAA

TAF KCDC 150520Z 1506/1606 VRB03KT P6SM SKC
FM151900 27007KT P6SM SKC
FM160100 VRB04KT P6SM SKC

Example: see airport list